Latest Weather Observations for Sydney Harbour

IDN60901

Issued at 1:32 am EDT Sunday 11 December 2016 (issued every 10 minutes, with the page automatically refreshed every 10 minutes)

About weather observations | Map of Sydney area stations | Latest observations for Sydney area | Other Formats
Station Details ID: 066196 Name: WEDDING CAKE WEST Lat: -33.84 Lon: 151.26 Height: 6.0 m
Data from the previous 72 hours. | See also: Recent months at Sydney Harbour
Date/Time
EDT
Temp
°C
App
Temp
°C
Dew
Point
°C
Rel
Hum
%
Delta-T
°C
Wind Press
QNH
hPa
Press
MSL
hPa
Rain since
9am
mm
Dir  Spd
km/h
Gust
km/h
Spd
kts
Gust
kts
11/01:30am 20.7 - - - - NE 26 32 14 17 - - -
11/01:00am 20.5 - - - - NE 30 35 16 19 - - -
11/12:30am 20.7 - - - - NNE 30 35 16 19 - - -
11/12:00am 20.7 - - - - NE 28 37 15 20 - - -
 
Date/Time
EDT
Temp
°C
App
Temp
°C
Dew
Point
°C
Rel
Hum
%
Delta-T
°C
Wind Press
QNH
hPa
Press
MSL
hPa
Rain since
9am
mm
Dir  Spd
km/h
Gust
km/h
Spd
kts
Gust
kts
10/11:30pm 20.6 - - - - NE 28 37 15 20 - - -
10/11:00pm 20.6 - - - - NE 30 35 16 19 - - -
10/10:30pm 20.5 - - - - NE 32 39 17 21 - - -
10/10:00pm 20.4 - - - - NE 30 37 16 20 - - -
10/09:30pm 20.6 - - - - NE 32 39 17 21 - - -
10/09:00pm 20.5 - - - - NE 32 39 17 21 - - -
10/08:30pm 20.5 - - - - NE 33 39 18 21 - - -
10/08:00pm 20.6 - - - - NE 33 43 18 23 - - -
10/07:30pm 20.5 - - - - NE 33 41 18 22 - - -
10/07:00pm 20.4 - - - - NE 32 39 17 21 - - -
10/06:30pm 20.7 - - - - NE 32 39 17 21 - - -
10/06:00pm 20.5 - - - - NE 32 37 17 20 - - -
10/05:30pm 20.2 - - - - NE 32 39 17 21 - - -
10/05:00pm 20.2 - - - - NE 33 41 18 22 - - -
10/04:30pm 20.2 - - - - ENE 32 37 17 20 - - -
10/04:00pm 20.0 - - - - ENE 30 35 16 19 - - -
10/03:30pm 20.2 - - - - ENE 28 35 15 19 - - -
10/03:00pm 20.2 - - - - ENE 26 33 14 18 - - -
10/02:30pm 20.1 - - - - ENE 26 32 14 17 - - -
10/02:00pm 19.9 - - - - NE 26 30 14 16 - - -
10/01:30pm 19.6 - - - - ENE 24 28 13 15 - - -
10/01:00pm 19.7 - - - - ENE 24 28 13 15 - - -
10/12:30pm 19.7 - - - - ENE 22 28 12 15 - - -
10/12:00pm 19.6 - - - - ENE 22 28 12 15 - - -
10/11:30am 20.0 - - - - ENE 19 24 10 13 - - -
10/11:00am 19.5 - - - - E 17 24 9 13 - - -
10/10:30am 19.7 - - - - E 13 17 7 9 - - -
10/10:00am 20.2 - - - - E 13 17 7 9 - - -
10/09:30am 19.6 - - - - E 11 17 6 9 - - -
10/09:00am 20.5 - - - - CALM 0 13 0 7 - - -
10/08:30am 18.9 - - - - CALM 0 0 0 0 - - -
10/08:00am 18.4 - - - - WSW 6 7 3 4 - - -
10/07:30am 18.2 - - - - WSW 4 9 2 5 - - -
10/07:00am 17.7 - - - - WNW 9 13 5 7 - - -
10/06:30am 18.2 - - - - WSW 13 17 7 9 - - -
10/06:00am 18.8 - - - - SSE 7 7 4 4 - - -
10/05:30am 18.8 - - - - SSE 7 9 4 5 - - -
10/05:00am 18.8 - - - - SSE 9 11 5 6 - - -
10/04:30am 18.8 - - - - SSE 13 17 7 9 - - -
10/04:00am 19.0 - - - - SSE 13 15 7 8 - - -
10/03:30am 19.1 - - - - SE 9 13 5 7 - - -
10/03:00am 19.1 - - - - SSE 13 17 7 9 - - -
10/02:30am 19.3 - - - - SSE 11 15 6 8 - - -
10/02:00am 19.3 - - - - SSE 11 13 6 7 - - -
10/01:30am 19.2 - - - - SSE 11 13 6 7 - - -
10/01:00am 19.2 - - - - SSE 11 17 6 9 - - -
10/12:30am 19.4 - - - - SE 13 17 7 9 - - -
10/12:00am 19.4 - - - - SE 17 20 9 11 - - -
 
Date/Time
EDT
Temp
°C
App
Temp
°C
Dew
Point
°C
Rel
Hum
%
Delta-T
°C
Wind Press
QNH
hPa
Press
MSL
hPa
Rain since
9am
mm
Dir  Spd
km/h
Gust
km/h
Spd
kts
Gust
kts
09/11:30pm 19.3 - - - - SSE 13 17 7 9 - - -
09/11:00pm 19.4 - - - - SE 17 20 9 11 - - -
09/10:30pm 19.4 - - - - SE 20 24 11 13 - - -
09/10:00pm 19.5 - - - - SSE 20 26 11 14 - - -
09/09:30pm 19.7 - - - - SE 20 28 11 15 - - -
09/09:00pm 19.7 - - - - SE 22 32 12 17 - - -
09/08:30pm 20.0 - - - - SSE 20 26 11 14 - - -
09/08:00pm 20.2 - - - - SSE 20 28 11 15 - - -
09/07:30pm 20.5 - - - - SSE 22 30 12 16 - - -
09/07:00pm 20.4 - - - - SE 24 30 13 16 - - -
09/06:30pm 20.8 - - - - SE 20 28 11 15 - - -
09/06:00pm 20.9 - - - - SE 24 30 13 16 - - -
09/05:30pm 20.9 - - - - SE 24 32 13 17 - - -
09/05:00pm 20.9 - - - - SE 28 35 15 19 - - -
09/04:30pm 21.1 - - - - SE 30 39 16 21 - - -
09/04:00pm 21.0 - - - - SE 30 37 16 20 - - -
09/03:30pm 20.9 - - - - SE 30 39 16 21 - - -
09/03:00pm 24.1 - - - - WSW 28 39 15 21 - - -
09/02:41pm 24.0 - - - - SW 30 52 16 28 - - -
09/02:30pm 23.7 - - - - WSW 28 44 15 24 - - -
09/02:03pm 23.5 - - - - WSW 32 50 17 27 - - -
09/02:00pm 23.4 - - - - WSW 33 50 18 27 - - -
09/01:34pm 23.3 - - - - W 32 54 17 29 - - -
09/01:30pm 23.0 - - - - WSW 32 44 17 24 - - -
09/01:00pm 22.6 - - - - W 32 52 17 28 - - -
09/12:35pm 22.1 - - - - WSW 35 54 19 29 - - -
09/12:30pm 22.0 - - - - WSW 37 54 20 29 - - -
09/12:00pm 21.5 - - - - W 39 57 21 31 - - -
09/11:31am 21.5 - - - - WSW 33 56 18 30 - - -
09/11:30am 21.5 - - - - WSW 32 46 17 25 - - -
09/11:05am 21.0 - - - - WSW 35 54 19 29 - - -
09/11:00am 21.3 - - - - WSW 35 48 19 26 - - -
09/10:33am 20.6 - - - - WSW 37 67 20 36 - - -
09/10:30am 20.8 - - - - WSW 37 52 20 28 - - -
09/10:00am 20.3 - - - - W 43 67 23 36 - - -
09/09:30am 19.8 - - - - WSW 39 57 21 31 - - -
09/09:04am 19.5 - - - - W 39 57 21 31 - - -
09/09:00am 19.5 - - - - W 41 57 22 31 - - -
09/08:30am 19.1 - - - - WSW 46 69 25 37 - - -
09/08:00am 19.0 - - - - WSW 41 63 22 34 - - -
09/07:36am 19.0 - - - - WSW 43 63 23 34 - - -
09/07:30am 18.9 - - - - WSW 39 56 21 30 - - -
09/07:04am 18.9 - - - - WSW 32 54 17 29 - - -
09/07:00am 19.0 - - - - WSW 32 43 17 23 - - -
09/06:30am 19.1 - - - - SW 39 52 21 28 - - -
09/06:00am 19.3 - - - - SW 41 50 22 27 - - -
09/05:30am 19.6 - - - - WSW 32 46 17 25 - - -
09/05:00am 19.7 - - - - SW 30 37 16 20 - - -
09/04:30am 19.9 - - - - SW 35 43 19 23 - - -
09/04:00am 20.0 - - - - SW 37 48 20 26 - - -
09/03:30am 20.7 - - - - SW 37 50 20 27 - - -
09/03:05am 20.9 - - - - WSW 35 54 19 29 - - -
09/03:00am 20.9 - - - - WSW 32 43 17 23 - - -
09/02:30am 21.4 - - - - WSW 33 48 18 26 - - -
09/02:15am 21.4 - - - - WSW 37 57 20 31 - - -
09/02:00am 21.6 - - - - WSW 39 54 21 29 - - -
09/01:30am 22.0 - - - - WSW 43 61 23 33 - - -
09/01:01am 22.8 - - - - WSW 39 57 21 31 - - -
09/01:00am 22.7 - - - - WSW 39 57 21 31 - - -
09/12:59am 22.8 - - - - WSW 39 57 21 31 - - -
09/12:43am 23.6 - - - - W 44 74 24 40 - - -
09/12:38am 26.0 - - - - WNW 32 69 17 37 - - -
09/12:30am 26.5 - - - - WNW 30 43 16 23 - - -
09/12:00am 26.8 - - - - WNW 26 35 14 19 - - -
 
Date/Time
EDT
Temp
°C
App
Temp
°C
Dew
Point
°C
Rel
Hum
%
Delta-T
°C
Wind Press
QNH
hPa
Press
MSL
hPa
Rain since
9am
mm
Dir  Spd
km/h
Gust
km/h
Spd
kts
Gust
kts
08/11:46pm 26.8 - - - - WNW 28 39 15 21 - - -
08/11:30pm 25.8 - - - - W 15 17 8 9 - - -
08/11:00pm 26.5 - - - - WSW 20 30 11 16 - - -
08/10:37pm 27.0 - - - - W 20 39 11 21 - - -
08/10:30pm 25.3 - - - - WNW 11 17 6 9 - - -
08/10:00pm 24.3 - - - - SE 7 13 4 7 - - -
08/09:30pm 25.4 - - - - SSW 19 33 10 18 - - -
08/09:24pm 24.4 - - - - SSW 13 30 7 16 - - -
08/09:14pm 24.7 - - - - NNW 30 56 16 30 - - -
08/09:13pm 24.3 - - - - N 30 56 16 30 - - -
08/09:12pm 23.9 - - - - N 28 56 15 30 - - -
08/09:00pm 23.5 - - - - NNE 28 33 15 18 - - -
08/08:30pm 23.3 - - - - N 24 35 13 19 - - -
08/08:00pm 23.3 - - - - NNE 39 46 21 25 - - -
08/07:30pm 23.4 - - - - NNE 44 54 24 29 - - -
08/07:00pm 23.5 - - - - NNE 41 52 22 28 - - -
08/06:30pm 23.9 - - - - NNE 46 59 25 32 - - -
08/06:00pm 23.4 - - - - NNE 46 54 25 29 - - -
08/05:30pm 23.3 - - - - NNE 44 54 24 29 - - -
08/05:00pm 23.0 - - - - NNE 44 54 24 29 - - -
08/04:30pm 22.9 - - - - NNE 50 59 27 32 - - -
08/04:00pm 22.9 - - - - NNE 43 52 23 28 - - -
08/03:30pm 22.9 - - - - NNE 43 52 23 28 - - -
08/03:00pm 22.8 - - - - NNE 46 57 25 31 - - -
08/02:30pm 22.7 - - - - NNE 44 52 24 28 - - -
08/02:00pm 22.5 - - - - NNE 43 50 23 27 - - -
08/01:30pm 22.4 - - - - NNE 41 48 22 26 - - -
08/01:00pm 22.0 - - - - NNE 39 46 21 25 - - -
08/12:30pm 21.6 - - - - NNE 35 39 19 21 - - -
08/12:00pm 21.7 - - - - NNE 28 32 15 17 - - -
08/11:30am 21.5 - - - - NNE 30 33 16 18 - - -
08/11:00am 21.4 - - - - NNE 30 33 16 18 - - -
08/10:30am 21.3 - - - - NE 22 24 12 13 - - -
08/10:00am 21.0 - - - - NNE 26 32 14 17 - - -
08/09:30am 21.0 - - - - NNE 20 22 11 12 - - -
08/09:00am 20.8 - - - - NNE 17 20 9 11 - - -
08/08:30am 20.8 - - - - NNE 15 20 8 11 - - -
08/08:00am 20.7 - - - - NNE 15 19 8 10 - - -
08/07:30am 20.6 - - - - N 15 19 8 10 - - -
08/07:00am 20.5 - - - - N 13 15 7 8 - - -
08/06:30am 20.5 - - - - NNW 13 19 7 10 - - -
08/06:00am 20.4 - - - - N 13 17 7 9 - - -
08/05:30am 20.5 - - - - NNW 13 17 7 9 - - -
08/05:00am 20.6 - - - - N 17 26 9 14 - - -
08/04:30am 20.7 - - - - N 22 30 12 16 - - -
08/04:00am 20.8 - - - - N 20 32 11 17 - - -
08/03:30am 20.8 - - - - N 22 28 12 15 - - -
08/03:00am 20.9 - - - - N 20 26 11 14 - - -
08/02:30am 21.1 - - - - NNE 24 30 13 16 - - -
08/02:00am 21.1 - - - - N 28 35 15 19 - - -

Latest Capital City Observations: Canberra | Sydney | Melbourne | Brisbane | Adelaide | Perth | Hobart | Darwin

Other Formats:

Comma delimited format used in spreadsheet applications
http://www.bom.gov.au/fwo/IDN60901/IDN60901.95766.axf

JavaScript Object Notation format (JSON) in row-major order
http://www.bom.gov.au/fwo/IDN60901/IDN60901.95766.json